Time;durP1;ratioP1;P1;durP2;ratioP2;P2;SDS_P1;SDS_P2;PMS_P1;PMS_P2;Temp;Humidity;BMP_temperature;BMP_pressure;BME280_temperature;BME280_humidity;BME280_pressure;Samples;Min_cycle;Max_cycle;Signal;HPM_P1;HPM_P2
2021/04/10 00:01:42;;;;;;;6.78;5.70;;;;;;;11.55;51.50;100348.25;4828729;28;97958;-62
2021/04/10 00:04:11;;;;;;;6.80;5.57;;;;;;;11.56;51.11;100349.06;4835272;28;99067;-61
2021/04/10 00:06:38;;;;;;;6.45;5.38;;;;;;;11.54;51.67;100345.81;4828019;28;128174;-58
2021/04/10 00:09:06;;;;;;;6.72;5.43;;;;;;;11.55;51.25;100344.72;4828459;28;98900;-58
2021/04/10 00:11:32;;;;;;;8.07;5.82;;;;;;;11.49;51.16;100343.13;4849176;28;98707;-59
2021/04/10 00:13:58;;;;;;;6.68;5.43;;;;;;;11.51;50.88;100340.97;4922043;28;97740;-62
2021/04/10 00:16:24;;;;;;;7.50;5.78;;;;;;;11.48;51.00;100334.25;4925880;28;111486;-58
2021/04/10 00:18:50;;;;;;;7.13;5.63;;;;;;;11.51;51.65;100331.00;4927533;28;97983;-61
2021/04/10 00:21:17;;;;;;;7.13;5.95;;;;;;;11.49;51.21;100335.84;4925819;28;127456;-58
2021/04/10 00:23:43;;;;;;;7.90;5.40;;;;;;;11.49;51.50;100335.84;4919179;28;118339;-63
2021/04/10 00:26:13;;;;;;;6.03;5.43;;;;;;;11.48;51.08;100336.94;4925110;28;99198;-62
2021/04/10 00:28:40;;;;;;;6.50;5.80;;;;;;;11.48;51.28;100339.63;4926369;28;124357;-58
2021/04/10 00:31:06;;;;;;;7.65;5.78;;;;;;;11.46;50.95;100344.50;4924272;28;98091;-58
2021/04/10 00:33:37;;;;;;;7.43;5.93;;;;;;;11.38;51.09;100345.06;4916510;28;97808;-58
2021/04/10 00:36:04;;;;;;;6.35;5.60;;;;;;;11.42;51.61;100348.81;4923263;28;98109;-58
2021/04/10 00:38:31;;;;;;;6.85;5.78;;;;;;;11.42;50.86;100345.31;4922902;28;112288;-63
2021/04/10 00:40:58;;;;;;;7.80;5.97;;;;;;;11.39;51.17;100346.66;4936355;28;97829;-60
2021/04/10 00:43:25;;;;;;;7.72;5.80;;;;;;;11.39;51.33;100353.97;4923422;28;97782;-62
2021/04/10 00:45:51;;;;;;;6.93;5.60;;;;;;;11.41;50.99;100355.31;4921881;28;98527;-62
2021/04/10 00:48:18;;;;;;;7.10;5.60;;;;;;;11.44;51.67;100360.16;4923885;28;97780;-62
2021/04/10 00:50:44;;;;;;;5.82;5.22;;;;;;;11.38;50.96;100358.56;4888197;28;97877;-62
2021/04/10 00:53:11;;;;;;;7.45;5.43;;;;;;;11.38;51.14;100353.16;4923353;28;101236;-62
2021/04/10 00:55:38;;;;;;;7.50;5.03;;;;;;;11.35;51.11;100347.50;4936939;28;98432;-62
2021/04/10 00:58:04;;;;;;;6.43;5.50;;;;;;;11.32;51.37;100348.88;4921391;28;98507;-60
2021/04/10 01:00:30;;;;;;;6.47;5.65;;;;;;;11.38;51.33;100345.06;4920850;28;119227;-62
2021/04/10 01:02:56;;;;;;;6.20;5.30;;;;;;;11.40;51.15;100350.19;4916041;28;121520;-63
2021/04/10 01:05:22;;;;;;;6.60;5.13;;;;;;;11.44;51.20;100337.78;4824530;28;128175;-59
2021/04/10 01:07:48;;;;;;;5.82;5.15;;;;;;;11.42;50.97;100348.81;4824779;28;114721;-58
2021/04/10 01:10:14;;;;;;;6.97;5.13;;;;;;;11.40;51.27;100337.50;4824181;28;122099;-59
2021/04/10 01:13:28;;;;;;;7.30;5.40;;;;;;;11.36;51.00;100330.22;4806451;28;121459;-62
2021/04/10 01:16:13;;;;;;;;;;;;;;;11.28;51.50;100332.44;4847200;28;98976;-63
2021/04/10 01:18:57;;;;;;;6.35;5.30;;;;;;;11.33;51.11;100326.19;4851700;28;98339;-58
2021/04/10 01:21:45;;;;;;;6.68;5.80;;;;;;;11.33;50.89;100322.69;4803814;29;98155;-62
2021/04/10 01:24:26;;;;;;;8.45;5.82;;;;;;;11.27;50.86;100317.28;4808659;28;97899;-58
2021/04/10 01:27:07;;;;;;;9.32;6.07;;;;;;;11.28;50.79;100318.13;4824376;28;98377;-62
2021/04/10 01:30:08;;;;;;;6.53;5.53;;;;;;;11.28;50.93;100308.13;4871125;28;98919;-58
2021/04/10 01:33:02;;;;;;;8.18;6.07;;;;;;;11.33;50.71;100303.81;4921115;28;98010;-59
2021/04/10 01:35:36;;;;;;;8.38;6.38;;;;;;;11.28;50.80;100302.75;4923914;28;98039;-58
2021/04/10 01:38:04;;;;;;;7.38;5.82;;;;;;;11.36;50.90;100300.53;4936898;28;98398;-59
2021/04/10 01:40:33;;;;;;;8.48;6.40;;;;;;;11.29;51.21;100304.34;4935373;28;98266;-59
2021/04/10 01:42:59;;;;;;;8.70;6.32;;;;;;;11.28;51.60;100304.63;4827461;28;98283;-63
2021/04/10 01:45:26;;;;;;;8.27;6.18;;;;;;;11.27;51.21;100303.00;4828389;28;98184;-58
2021/04/10 01:47:54;;;;;;;7.28;6.35;;;;;;;11.30;50.74;100300.56;4911941;28;98634;-58
2021/04/10 01:50:21;;;;;;;7.95;6.63;;;;;;;11.32;51.03;100294.91;4921966;28;98407;-58
2021/04/10 01:52:49;;;;;;;7.32;6.45;;;;;;;11.31;50.94;100295.97;4850933;28;102641;-63
2021/04/10 01:55:17;;;;;;;7.60;6.50;;;;;;;11.34;51.01;100297.31;4847774;28;98053;-58
2021/04/10 01:57:43;;;;;;;7.50;6.70;;;;;;;11.34;51.21;100294.63;4874244;28;98579;-63
2021/04/10 02:00:10;;;;;;;7.60;6.70;;;;;;;11.35;51.47;100296.22;4823780;28;98466;-63
2021/04/10 02:02:40;;;;;;;6.93;6.22;;;;;;;11.33;51.14;100293.81;4804708;29;112737;-59
2021/04/10 02:05:07;;;;;;;7.50;6.30;;;;;;;11.34;51.33;100283.81;4826073;28;98119;-58
2021/04/10 02:07:33;;;;;;;7.32;6.32;;;;;;;11.36;51.37;100287.03;4822890;28;106828;-58
2021/04/10 02:09:59;;;;;;;7.20;6.50;;;;;;;11.36;51.01;100287.03;4823313;28;126190;-58
2021/04/10 02:12:29;;;;;;;8.02;6.82;;;;;;;11.31;51.30;100288.69;4806388;28;115617;-58
2021/04/10 02:14:59;;;;;;;8.05;6.35;;;;;;;11.30;51.51;100288.97;4845394;28;122765;-58
2021/04/10 02:17:25;;;;;;;9.05;7.35;;;;;;;11.22;51.44;100284.94;4919317;28;98411;-64
2021/04/10 02:19:51;;;;;;;8.77;7.10;;;;;;;11.31;51.51;100274.38;4920513;28;128058;-63
2021/04/10 02:22:17;;;;;;;8.23;6.80;;;;;;;11.29;51.39;100271.97;4923264;28;97671;-58
2021/04/10 02:24:44;;;;;;;8.68;7.13;;;;;;;11.33;51.59;100257.94;4918808;28;97720;-58
2021/04/10 02:27:10;;;;;;;7.95;7.10;;;;;;;11.27;51.08;100249.84;4921262;28;125357;-63
2021/04/10 02:29:37;;;;;;;9.20;6.57;;;;;;;11.35;51.10;100247.66;4920988;28;103637;-63
2021/04/10 02:32:29;;;;;;;8.38;7.05;;;;;;;11.39;51.39;100241.41;4920134;28;97841;-59
2021/04/10 02:35:09;;;;;;;7.65;6.85;;;;;;;11.42;51.20;100243.56;4880498;28;109254;-62
2021/04/10 02:37:35;;;;;;;9.05;7.20;;;;;;;11.44;51.34;100241.41;4821295;28;112253;-63
2021/04/10 02:40:04;;;;;;;8.00;6.82;;;;;;;11.49;50.76;100243.28;4788270;28;98218;-58
2021/04/10 02:42:31;;;;;;;9.07;6.93;;;;;;;11.50;50.97;100248.38;4803033;28;100056;-62
2021/04/10 02:44:57;;;;;;;8.68;6.90;;;;;;;11.56;50.65;100243.78;4813828;28;98207;-59
2021/04/10 02:47:24;;;;;;;7.30;6.40;;;;;;;11.53;50.62;100241.63;4805551;28;128451;-58
2021/04/10 02:49:56;;;;;;;7.40;6.68;;;;;;;11.57;51.10;100241.88;4806314;28;98438;-62
2021/04/10 02:52:34;;;;;;;8.60;6.50;;;;;;;11.50;51.07;100232.19;4806289;28;98665;-62
2021/04/10 02:55:01;;;;;;;8.55;6.85;;;;;;;11.51;50.91;100235.69;4893821;28;98093;-59
2021/04/10 02:57:27;;;;;;;8.57;7.05;;;;;;;11.60;50.84;100238.63;4935656;28;98627;-62
2021/04/10 02:59:57;;;;;;;7.10;6.07;;;;;;;11.55;50.85;100240.28;4841832;28;98213;-58
2021/04/10 03:02:23;;;;;;;7.05;6.28;;;;;;;11.52;50.47;100235.44;4821170;28;104595;-58
2021/04/10 03:04:49;;;;;;;8.00;6.57;;;;;;;11.54;50.96;100235.13;4837376;28;98321;-63
2021/04/10 03:07:15;;;;;;;7.47;6.55;;;;;;;11.54;51.13;100232.44;4820206;28;127886;-62
2021/04/10 03:09:47;;;;;;;7.32;6.30;;;;;;;11.57;51.14;100231.06;4822938;28;98411;-58
2021/04/10 03:12:18;;;;;;;7.80;6.43;;;;;;;11.49;51.03;100235.16;4806271;28;98373;-58
2021/04/10 03:14:44;;;;;;;6.75;6.10;;;;;;;11.59;50.90;100234.28;4806446;28;97951;-59
2021/04/10 03:17:16;;;;;;;7.68;6.25;;;;;;;11.54;51.17;100221.63;4805329;28;98292;-58
2021/04/10 03:19:43;;;;;;;6.97;5.65;;;;;;;11.50;50.87;100224.09;4821156;28;98848;-59
2021/04/10 03:22:14;;;;;;;6.75;6.00;;;;;;;11.53;51.34;100233.53;4871564;28;97782;-63
2021/04/10 03:24:40;;;;;;;7.05;5.57;;;;;;;11.47;51.40;100230.03;4917176;28;98173;-63
2021/04/10 03:27:06;;;;;;;6.97;5.63;;;;;;;11.54;51.44;100230.53;4935393;28;107116;-58
2021/04/10 03:29:33;;;;;;;7.05;5.75;;;;;;;11.56;51.14;100235.69;4920807;28;98592;-58
2021/04/10 03:31:59;;;;;;;6.57;5.60;;;;;;;11.55;51.24;100237.56;4919549;28;97965;-63
2021/04/10 03:34:25;;;;;;;6.63;5.63;;;;;;;11.49;51.47;100246.78;4900412;28;114450;-63
2021/04/10 03:36:54;;;;;;;6.60;5.28;;;;;;;11.45;51.11;100251.13;4920846;28;127134;-58
2021/04/10 03:39:20;;;;;;;7.18;5.18;;;;;;;11.50;51.46;100251.06;4846474;28;115927;-63
2021/04/10 03:41:46;;;;;;;6.72;5.43;;;;;;;11.49;51.94;100256.75;4821225;28;98055;-58
2021/04/10 03:44:12;;;;;;;6.43;5.35;;;;;;;11.51;51.70;100250.00;4822740;28;98044;-62
2021/04/10 03:46:39;;;;;;;6.70;6.00;;;;;;;11.48;51.83;100255.16;4822500;28;128108;-58
2021/04/10 03:49:06;;;;;;;6.10;5.30;;;;;;;11.52;51.12;100257.03;4822635;28;99096;-63
2021/04/10 03:51:33;;;;;;;6.32;5.55;;;;;;;11.46;51.35;100262.72;4919856;28;98167;-62
2021/04/10 03:53:59;;;;;;;6.72;5.55;;;;;;;11.46;51.41;100262.72;4919586;28;97798;-63
2021/04/10 03:56:25;;;;;;;5.80;5.13;;;;;;;11.50;51.81;100275.38;4917411;28;98309;-58
2021/04/10 03:58:51;;;;;;;5.45;4.90;;;;;;;11.43;51.65;100274.84;4902923;28;108341;-62
2021/04/10 04:01:17;;;;;;;7.10;5.40;;;;;;;11.45;51.17;100274.59;4902031;28;98118;-62
2021/04/10 04:03:44;;;;;;;6.68;5.28;;;;;;;11.48;51.75;100284.84;4916646;28;122281;-59
2021/04/10 04:06:10;;;;;;;5.90;4.93;;;;;;;11.48;51.45;100284.84;4922056;28;124010;-62
2021/04/10 04:08:36;;;;;;;6.75;5.50;;;;;;;11.43;51.96;100291.06;4922764;28;98792;-62
2021/04/10 04:11:02;;;;;;;6.32;5.10;;;;;;;11.49;51.56;100303.44;4920387;28;125724;-59
2021/04/10 04:13:28;;;;;;;5.78;5.10;;;;;;;11.46;52.04;100305.91;4923841;28;123133;-62
2021/04/10 04:15:54;;;;;;;7.00;4.75;;;;;;;11.39;52.39;100305.38;4920120;28;122274;-58
2021/04/10 04:18:20;;;;;;;5.85;5.22;;;;;;;11.37;52.41;100299.47;4878852;28;116352;-62
2021/04/10 04:20:47;;;;;;;5.45;4.80;;;;;;;11.38;53.05;100290.28;4824420;28;120963;-62
2021/04/10 04:23:13;;;;;;;5.85;5.20;;;;;;;11.38;52.55;100293.78;4825637;28;121990;-58
2021/04/10 04:25:39;;;;;;;5.75;5.15;;;;;;;11.33;53.06;100299.22;4823870;28;125838;-58
2021/04/10 04:28:05;;;;;;;5.07;4.55;;;;;;;11.33;52.58;100290.31;4825036;28;112489;-62
2021/04/10 04:30:31;;;;;;;5.97;5.05;;;;;;;11.34;53.01;100289.22;4823713;28;108412;-63
2021/04/10 04:32:57;;;;;;;6.47;5.10;;;;;;;11.31;52.93;100282.47;4824805;28;122521;-62
2021/04/10 04:35:23;;;;;;;5.75;5.15;;;;;;;11.29;53.18;100284.66;4824326;28;127398;-58
2021/04/10 04:37:49;;;;;;;5.40;4.90;;;;;;;11.30;53.96;100278.97;4833029;28;98653;-63
2021/04/10 04:40:16;;;;;;;5.97;4.85;;;;;;;11.30;53.72;100278.97;4821838;28;126542;-58
2021/04/10 04:42:42;;;;;;;6.22;5.28;;;;;;;11.28;53.63;100278.47;4823663;28;97725;-58
2021/04/10 04:45:08;;;;;;;5.80;5.00;;;;;;;11.29;53.61;100281.97;4830112;28;127158;-62
2021/04/10 04:47:34;;;;;;;5.85;4.80;;;;;;;11.33;53.65;100271.41;4910813;28;99664;-62
2021/04/10 04:50:01;;;;;;;5.43;4.82;;;;;;;11.33;53.54;100268.72;4921261;28;119051;-62
2021/04/10 04:52:31;;;;;;;5.55;5.05;;;;;;;11.35;53.97;100263.84;4923782;28;97692;-62
2021/04/10 04:54:57;;;;;;;6.13;5.00;;;;;;;11.38;54.05;100256.00;4922168;28;99308;-62
2021/04/10 04:57:23;;;;;;;5.38;4.82;;;;;;;11.37;54.39;100265.19;4919668;28;125101;-59
2021/04/10 04:59:49;;;;;;;5.85;5.05;;;;;;;11.39;54.63;100270.28;4921774;28;97969;-59
2021/04/10 05:02:15;;;;;;;5.47;4.72;;;;;;;11.38;54.39;100283.00;4922259;28;98273;-59
2021/04/10 05:04:42;;;;;;;6.72;4.93;;;;;;;11.41;54.43;100301.34;4921318;28;119268;-59
2021/04/10 05:07:08;;;;;;;6.65;5.30;;;;;;;11.42;54.52;100299.44;4920198;28;123631;-59
2021/04/10 05:09:34;;;;;;;6.60;5.25;;;;;;;11.51;54.55;100297.75;4922358;28;113599;-62
2021/04/10 05:12:00;;;;;;;6.38;5.60;;;;;;;11.51;54.98;100292.38;4920346;28;123680;-59
2021/04/10 05:14:26;;;;;;;7.05;5.85;;;;;;;11.50;55.15;100288.06;4913524;28;122135;-58
2021/04/10 05:16:52;;;;;;;6.30;5.30;;;;;;;11.47;54.73;100307.50;4920853;28;119380;-62
2021/04/10 05:19:18;;;;;;;7.30;5.40;;;;;;;11.42;55.21;100323.72;4899389;28;127002;-59
2021/04/10 05:21:44;;;;;;;6.82;5.18;;;;;;;11.39;56.00;100340.47;4817525;28;123790;-62
2021/04/10 05:24:10;;;;;;;7.05;5.57;;;;;;;11.33;55.13;100331.59;4820543;28;120574;-58
2021/04/10 05:26:36;;;;;;;6.20;5.47;;;;;;;11.28;55.61;100339.72;4821762;28;99243;-58
2021/04/10 05:29:03;;;;;;;6.28;5.07;;;;;;;11.24;56.20;100362.94;4820190;28;119047;-58
2021/04/10 05:31:30;;;;;;;5.95;5.28;;;;;;;11.20;55.61;100378.03;4821669;28;97861;-62
2021/04/10 05:33:57;;;;;;;7.88;5.75;;;;;;;11.17;56.67;100384.00;4832036;28;108408;-62
2021/04/10 05:36:23;;;;;;;6.30;4.88;;;;;;;11.12;56.13;100376.72;4819906;28;114917;-62
2021/04/10 05:38:49;;;;;;;6.22;5.38;;;;;;;11.11;56.74;100388.56;4857143;28;98335;-62
2021/04/10 05:41:15;;;;;;;7.07;5.55;;;;;;;11.10;56.21;100399.66;4821678;28;97780;-58
2021/04/10 05:43:41;;;;;;;6.47;5.57;;;;;;;11.06;56.53;100408.28;4816311;28;98581;-58
2021/04/10 05:46:07;;;;;;;7.93;5.55;;;;;;;11.08;56.77;100416.06;4852957;28;120993;-62
2021/04/10 05:48:33;;;;;;;5.97;5.18;;;;;;;11.02;56.37;100420.69;4826783;28;115021;-58
2021/04/10 05:50:59;;;;;;;7.88;5.40;;;;;;;11.03;56.63;100430.38;4819199;28;121104;-58
2021/04/10 05:53:27;;;;;;;7.40;5.50;;;;;;;11.02;56.41;100434.16;4820394;28;118311;-58
2021/04/10 05:55:53;;;;;;;7.45;5.68;;;;;;;11.00;57.32;100436.34;4819940;28;98674;-62
2021/04/10 05:58:19;;;;;;;6.43;5.32;;;;;;;11.00;57.02;100441.75;4821038;28;98200;-61
2021/04/10 06:00:45;;;;;;;7.25;5.32;;;;;;;10.99;57.08;100431.19;4819695;28;122287;-59
2021/04/10 06:03:11;;;;;;;6.82;5.15;;;;;;;10.97;56.99;100425.28;4820662;28;103789;-58
2021/04/10 06:05:37;;;;;;;6.03;5.00;;;;;;;10.95;57.93;100422.84;4819005;28;97878;-58
2021/04/10 06:08:04;;;;;;;7.03;5.50;;;;;;;10.94;57.44;100421.22;4819365;28;127492;-58
2021/04/10 06:10:30;;;;;;;6.28;4.95;;;;;;;10.95;57.41;100413.94;4849670;28;99373;-58
2021/04/10 06:12:56;;;;;;;6.53;4.72;;;;;;;10.98;57.80;100424.19;4833686;28;98806;-59
2021/04/10 06:15:22;;;;;;;6.03;5.32;;;;;;;10.98;57.90;100421.50;4829751;28;98544;-62
2021/04/10 06:17:48;;;;;;;7.43;4.95;;;;;;;10.99;57.89;100417.72;4820677;28;98074;-58
2021/04/10 06:20:16;;;;;;;6.47;5.13;;;;;;;10.99;57.83;100423.09;4824004;28;123590;-62
2021/04/10 06:22:42;;;;;;;7.20;4.80;;;;;;;11.01;57.45;100418.28;4818345;28;98633;-58
2021/04/10 06:25:11;;;;;;;6.13;4.97;;;;;;;11.05;57.35;100422.84;4833777;28;118056;-61
2021/04/10 06:27:37;;;;;;;6.43;4.90;;;;;;;11.07;57.71;100419.88;4821162;28;97911;-62
2021/04/10 06:30:05;;;;;;;7.32;5.10;;;;;;;11.07;57.95;100426.06;4819070;28;97953;-62
2021/04/10 06:32:31;;;;;;;7.63;5.10;;;;;;;11.07;58.81;100422.56;4820164;28;99152;-59
2021/04/10 06:34:57;;;;;;;6.20;5.00;;;;;;;11.11;58.38;100430.91;4820360;28;98682;-58
2021/04/10 06:37:23;;;;;;;7.13;5.10;;;;;;;11.14;57.89;100431.19;4820989;28;98639;-59
2021/04/10 06:39:49;;;;;;;6.80;4.82;;;;;;;11.17;58.29;100432.56;4870613;28;99780;-62
2021/04/10 06:42:15;;;;;;;6.07;4.60;;;;;;;11.14;58.40;100431.19;4819236;28;98756;-59
2021/04/10 06:44:41;;;;;;;6.10;4.78;;;;;;;11.13;59.02;100434.19;4820751;28;102762;-58
2021/04/10 06:47:08;;;;;;;7.43;4.95;;;;;;;11.13;58.61;100437.69;4846480;28;125940;-59
2021/04/10 06:49:34;;;;;;;5.72;4.82;;;;;;;11.15;58.62;100435.50;4820726;28;123282;-62
2021/04/10 06:52:00;;;;;;;5.15;4.65;;;;;;;11.20;58.92;100430.13;4817250;28;118618;-62
2021/04/10 06:54:36;;;;;;;6.15;4.75;;;;;;;11.21;58.09;100426.34;4819306;28;98438;-62
2021/04/10 06:57:10;;;;;;;5.55;4.57;;;;;;;11.24;58.53;100439.28;4818396;28;98050;-62
2021/04/10 06:59:59;;;;;;;6.07;4.55;;;;;;;11.24;58.53;100446.56;4824537;28;97949;-58
2021/04/10 07:02:26;;;;;;;6.13;4.60;;;;;;;11.23;59.07;100450.34;4824573;28;98703;-58
2021/04/10 07:04:54;;;;;;;5.35;4.70;;;;;;;11.22;59.18;100449.53;4867425;28;99028;-59
2021/04/10 07:07:20;;;;;;;6.43;4.88;;;;;;;11.21;58.88;100445.22;4836173;28;102758;-58
2021/04/10 07:09:46;;;;;;;6.32;4.65;;;;;;;11.18;59.40;100443.06;4816492;28;114713;-62
2021/04/10 07:12:13;;;;;;;6.10;4.80;;;;;;;11.21;59.45;100450.63;4818457;28;98426;-58
2021/04/10 07:14:39;;;;;;;6.15;4.82;;;;;;;11.25;59.66;100448.19;4818864;28;98090;-62
2021/04/10 07:17:05;;;;;;;5.75;4.60;;;;;;;11.28;59.26;100447.66;4819304;28;127564;-62
2021/04/10 07:19:31;;;;;;;6.50;4.95;;;;;;;11.38;59.18;100444.09;4818276;28;113398;-58
2021/04/10 07:22:07;;;;;;;6.13;4.88;;;;;;;11.45;58.70;100444.66;4819254;28;98867;-62
2021/04/10 07:24:43;;;;;;;7.35;5.30;;;;;;;11.53;59.30;100441.38;4817724;28;99059;-62
2021/04/10 07:27:18;;;;;;;6.07;4.78;;;;;;;11.57;59.02;100437.06;4818972;28;98117;-58
2021/04/10 07:29:45;;;;;;;6.90;5.05;;;;;;;11.62;59.02;100444.31;4818293;28;98084;-58
2021/04/10 07:32:35;;;;;;;7.63;5.20;;;;;;;11.68;58.69;100448.63;4818297;28;98278;-59
2021/04/10 07:35:08;;;;;;;6.63;5.50;;;;;;;11.73;58.87;100448.59;4824918;28;98828;-58
2021/04/10 07:37:48;;;;;;;7.85;5.55;;;;;;;11.77;58.95;100452.38;4818222;28;117426;-62
2021/04/10 07:40:23;;;;;;;6.95;5.60;;;;;;;11.85;59.02;100457.25;4818992;28;97801;-62
2021/04/10 07:42:49;;;;;;;8.40;6.40;;;;;;;11.94;58.66;100465.56;4822135;28;98428;-62
2021/04/10 07:45:24;;;;;;;9.00;6.30;;;;;;;11.94;58.89;100460.97;4820792;28;116698;-62
2021/04/10 07:48:00;;;;;;;8.82;6.22;;;;;;;11.96;59.36;100466.13;4821321;28;98159;-62
2021/04/10 07:50:27;;;;;;;7.57;6.38;;;;;;;11.97;59.41;100467.72;4820153;28;113010;-58
2021/04/10 07:52:53;;;;;;;7.65;6.05;;;;;;;11.95;59.29;100469.91;4820954;28;99007;-62
2021/04/10 07:55:41;;;;;;;8.32;6.80;;;;;;;11.95;59.19;100470.72;4820468;28;109044;-59
2021/04/10 07:58:21;;;;;;;8.57;6.22;;;;;;;11.95;59.10;100469.91;4839831;28;98447;-59
2021/04/10 08:00:48;;;;;;;7.90;6.30;;;;;;;11.96;59.93;100472.31;4835104;28;97910;-58
2021/04/10 08:03:35;;;;;;;8.43;6.65;;;;;;;11.96;59.54;100480.44;4815098;28;98644;-62
2021/04/10 08:06:04;;;;;;;7.50;6.22;;;;;;;11.99;59.74;100481.78;4820938;28;118489;-59
2021/04/10 08:08:32;;;;;;;8.05;6.05;;;;;;;12.04;59.60;100481.75;4821156;28;98310;-58
2021/04/10 08:10:59;;;;;;;7.57;6.40;;;;;;;12.12;60.04;100477.66;4821276;28;98081;-62
2021/04/10 08:13:26;;;;;;;7.07;6.20;;;;;;;12.19;59.07;100484.41;4821736;28;97692;-62
2021/04/10 08:16:12;;;;;;;7.20;6.18;;;;;;;12.35;59.10;100481.63;4821536;28;98472;-59
2021/04/10 08:18:48;;;;;;;7.55;6.25;;;;;;;12.58;58.78;100488.25;4821685;28;98334;-62
2021/04/10 08:21:14;;;;;;;7.03;6.30;;;;;;;12.72;58.32;100486.53;4821196;28;97931;-58
2021/04/10 08:23:41;;;;;;;8.05;6.30;;;;;;;12.83;58.16;100489.97;4821275;28;111688;-62
2021/04/10 08:26:07;;;;;;;6.93;5.85;;;;;;;12.93;57.97;100490.72;4819780;28;98398;-59
2021/04/10 08:28:34;;;;;;;7.57;6.30;;;;;;;12.98;58.26;100503.38;4835502;28;102943;-62
2021/04/10 08:31:02;;;;;;;7.43;6.30;;;;;;;13.08;57.72;100505.19;4819001;28;98246;-58
2021/04/10 08:33:28;;;;;;;7.70;6.68;;;;;;;13.25;57.59;100509.16;4821981;28;98339;-62
2021/04/10 08:35:55;;;;;;;7.43;6.32;;;;;;;13.38;57.54;100513.09;4820950;28;98300;-62
2021/04/10 08:38:23;;;;;;;7.75;6.55;;;;;;;13.64;56.88;100512.88;4820967;28;98938;-58
2021/04/10 08:40:52;;;;;;;7.80;6.53;;;;;;;13.80;55.89;100511.59;4821026;28;100022;-59
2021/04/10 08:43:22;;;;;;;7.55;6.75;;;;;;;14.05;55.93;100512.41;4820174;28;98185;-59
2021/04/10 08:45:51;;;;;;;8.60;6.75;;;;;;;14.25;54.53;100512.97;4804549;28;100376;-59
2021/04/10 08:48:20;;;;;;;8.57;7.03;;;;;;;14.41;53.87;100524.41;4821605;28;98387;-59
2021/04/10 08:50:46;;;;;;;9.27;8.02;;;;;;;14.63;52.89;100529.31;4820321;28;98091;-62
2021/04/10 08:53:15;;;;;;;10.07;7.60;;;;;;;14.66;53.15;100522.50;4802409;28;120068;-59
2021/04/10 08:55:42;;;;;;;8.73;7.68;;;;;;;14.60;53.17;100521.75;4803879;28;98910;-59
2021/04/10 08:58:30;;;;;;;7.78;7.00;;;;;;;14.71;53.49;100533.28;4847265;28;97998;-59
2021/04/10 09:00:58;;;;;;;7.60;6.80;;;;;;;14.79;54.04;100537.25;4820549;28;98090;-59
2021/04/10 09:03:47;;;;;;;8.68;6.88;;;;;;;14.75;53.11;100530.78;4820909;28;106834;-59
2021/04/10 09:06:29;;;;;;;7.78;6.82;;;;;;;14.58;54.11;100534.81;4819638;28;98240;-59
2021/04/10 09:09:15;;;;;;;8.17;7.37;;;;;;;14.53;54.19;100539.50;4820592;28;99136;-63
2021/04/10 09:11:46;;;;;;;8.13;7.05;;;;;;;14.47;55.21;100539.53;4821328;28;98024;-63
2021/04/10 09:14:13;;;;;;;8.43;6.70;;;;;;;14.25;56.23;100544.69;4818352;28;100585;-62
2021/04/10 09:16:51;;;;;;;8.52;7.20;;;;;;;14.09;55.67;100560.31;4821034;28;99240;-63
2021/04/10 09:19:24;;;;;;;7.68;6.88;;;;;;;14.08;56.28;100552.50;4818506;28;98300;-62
2021/04/10 09:21:55;;;;;;;7.97;6.88;;;;;;;14.11;56.72;100563.56;4821201;28;97911;-62
2021/04/10 09:24:42;;;;;;;8.23;6.80;;;;;;;14.06;56.31;100562.81;4820348;28;98112;-59
2021/04/10 09:27:20;;;;;;;7.85;7.13;;;;;;;14.13;56.27;100565.97;4820786;28;98558;-59
2021/04/10 09:30:01;;;;;;;7.90;7.10;;;;;;;14.06;56.34;100573.63;4820258;28;98180;-62
2021/04/10 09:32:46;;;;;;;8.98;7.40;;;;;;;14.21;56.12;100578.91;4822039;28;97797;-59
2021/04/10 09:35:17;;;;;;;8.48;7.55;;;;;;;14.21;56.23;100584.31;4833315;28;98287;-62
2021/04/10 09:37:44;;;;;;;9.27;7.45;;;;;;;14.31;56.31;100586.91;4835719;28;98630;-63
2021/04/10 09:40:19;;;;;;;9.32;7.30;;;;;;;14.32;55.79;100585.81;4819409;28;97923;-59
2021/04/10 09:43:02;;;;;;;9.07;7.30;;;;;;;14.37;55.68;100588.47;4820854;28;98041;-59
2021/04/10 09:45:31;;;;;;;7.68;6.97;;;;;;;14.64;55.29;100592.50;4833851;28;98310;-62
2021/04/10 09:47:58;;;;;;;7.50;6.40;;;;;;;14.69;55.45;100593.25;4820734;28;98693;-62
2021/04/10 09:50:37;;;;;;;7.97;7.10;;;;;;;14.87;54.33;100597.09;4820605;28;97948;-62
2021/04/10 09:53:17;;;;;;;8.98;7.15;;;;;;;15.13;53.70;100592.09;4827145;28;98224;-59
2021/04/10 09:55:48;;;;;;;7.20;6.50;;;;;;;15.34;53.83;100589.88;4818447;28;98894;-59
2021/04/10 09:58:16;;;;;;;6.78;5.90;;;;;;;15.52;54.11;100588.22;4819394;28;115399;-62
2021/04/10 10:00:50;;;;;;;7.50;6.40;;;;;;;15.66;55.22;100582.84;4819127;28;114525;-62
2021/04/10 10:03:22;;;;;;;6.68;5.95;;;;;;;15.69;54.33;100596.66;4819695;28;97836;-62
2021/04/10 10:05:50;;;;;;;6.30;5.70;;;;;;;15.83;55.29;100590.44;4833792;28;101749;-62
2021/04/10 10:08:19;;;;;;;8.13;6.00;;;;;;;15.95;54.44;100597.03;4820348;28;98334;-59
2021/04/10 10:10:53;;;;;;;6.95;6.18;;;;;;;16.18;54.19;100595.19;4819605;28;98527;-59
2021/04/10 10:13:24;;;;;;;6.78;5.30;;;;;;;16.41;53.95;100593.41;4820549;28;98117;-59
2021/04/10 10:15:52;;;;;;;6.60;4.93;;;;;;;16.80;53.82;100599.44;4819751;28;98013;-63
2021/04/10 10:18:33;;;;;;;5.60;5.00;;;;;;;17.21;52.40;100596.56;4820606;28;98530;-60
2021/04/10 10:21:18;;;;;;;5.60;4.60;;;;;;;17.47;52.58;100593.25;4844231;28;98096;-59
2021/04/10 10:23:50;;;;;;;5.28;4.40;;;;;;;17.49;52.98;100591.00;4859105;28;97759;-63
2021/04/10 10:26:27;;;;;;;4.30;3.90;;;;;;;17.56;52.70;100588.66;4826701;28;97851;-63
2021/04/10 10:29:08;;;;;;;4.72;3.75;;;;;;;17.66;52.54;100593.88;4820187;28;98531;-62
2021/04/10 10:31:46;;;;;;;5.53;4.03;;;;;;;17.78;52.75;100599.56;4819525;28;98456;-63
2021/04/10 10:34:33;;;;;;;4.32;3.75;;;;;;;17.87;52.60;100592.25;4820096;28;97948;-62
2021/04/10 10:36:59;;;;;;;4.55;3.90;;;;;;;17.67;53.29;100599.00;4818558;28;127631;-59
2021/04/10 10:39:32;;;;;;;4.97;4.13;;;;;;;17.61;52.87;100602.97;4816142;28;127962;-63
2021/04/10 10:42:01;;;;;;;4.60;3.85;;;;;;;17.46;53.05;100597.91;4848831;28;115913;-59
2021/04/10 10:44:27;;;;;;;4.72;4.05;;;;;;;17.39;53.10;100608.44;4820059;28;110973;-59
2021/04/10 10:47:08;;;;;;;4.45;3.92;;;;;;;17.22;53.78;100613.75;4821913;28;99066;-63
2021/04/10 10:49:35;;;;;;;4.40;4.00;;;;;;;17.13;54.14;100617.22;4856922;28;105963;-59
2021/04/10 10:52:01;;;;;;;6.55;4.07;;;;;;;16.97;53.95;100623.28;4817087;28;100472;-62
2021/04/10 10:54:32;;;;;;;5.93;4.68;;;;;;;16.71;54.59;100623.03;4830941;28;97842;-63
2021/04/10 10:56:58;;;;;;;5.22;4.18;;;;;;;16.51;54.59;100624.25;4852563;28;98294;-59
2021/04/10 10:59:27;;;;;;;5.53;4.72;;;;;;;16.31;54.69;100619.97;4824520;28;102033;-59
2021/04/10 11:01:53;;;;;;;5.28;4.78;;;;;;;16.11;54.63;100630.16;4823201;28;98403;-63
2021/04/10 11:04:27;;;;;;;6.75;5.60;;;;;;;15.81;55.63;100625.28;4826865;28;122655;-59
2021/04/10 11:06:55;;;;;;;6.32;5.72;;;;;;;15.60;54.44;100627.47;4826538;28;99007;-62
2021/04/10 11:09:26;;;;;;;6.43;5.72;;;;;;;15.35;56.12;100629.50;4827692;28;98360;-62
2021/04/10 11:11:56;;;;;;;6.22;5.32;;;;;;;15.27;55.53;100635.59;4835833;28;98776;-62
2021/04/10 11:14:28;;;;;;;7.00;5.72;;;;;;;15.17;55.20;100628.44;4801534;28;98196;-59
2021/04/10 11:16:56;;;;;;;7.63;5.60;;;;;;;15.08;56.09;100629.34;4812377;28;98876;-62
2021/04/10 11:19:33;;;;;;;6.00;5.40;;;;;;;15.03;55.43;100632.16;4819163;28;99316;-59
2021/04/10 11:22:01;;;;;;;6.13;5.53;;;;;;;15.06;55.59;100635.09;4818728;28;97991;-64
2021/04/10 11:24:41;;;;;;;7.13;5.47;;;;;;;14.94;55.33;100642.88;4819050;28;98104;-59
2021/04/10 11:27:24;;;;;;;6.30;5.68;;;;;;;14.93;55.79;100638.50;4819503;28;99306;-62
2021/04/10 11:29:59;;;;;;;6.85;5.57;;;;;;;14.82;55.56;100646.00;4818729;28;98582;-62
2021/04/10 11:32:42;;;;;;;7.22;5.85;;;;;;;14.79;55.78;100641.16;4819395;28;98206;-59
2021/04/10 11:35:23;;;;;;;6.47;5.88;;;;;;;14.87;55.43;100640.50;4820965;28;98195;-62